Time,TemperatureF,DewpointF,PressureIn,WindDirection,WindDirectionDegrees,WindSpeedMPH,WindSpeedGustMPH,Humidity,HourlyPrecipIn,Conditions,Clouds,dailyrainin,SoftwareType,DateUTC
2013-01-08 00:05:00,33.1,32.0,30.27,ENE,65,0.0,-999.0,95,-99.99,,,0.00,weatherlink.com 1.10,2013-01-08 06:05:00,
2013-01-08 00:20:00,33.1,32.0,30.27,ENE,65,0.0,-999.0,94,-99.99,,,0.00,weatherlink.com 1.10,2013-01-08 06:20:00,
2013-01-08 00:35:00,32.9,31.0,30.28,ENE,65,0.0,-999.0,94,-99.99,,,0.00,weatherlink.com 1.10,2013-01-08 06:35:00,
2013-01-08 00:50:00,32.7,31.0,30.27,ENE,65,0.0,-999.0,94,-99.99,,,0.00,weatherlink.com 1.10,2013-01-08 06:50:00,
2013-01-08 01:05:00,33.0,32.0,30.27,ENE,65,0.0,-999.0,95,-99.99,,,0.00,weatherlink.com 1.10,2013-01-08 07:05:00,
2013-01-08 01:20:00,33.1,32.0,30.25,ENE,65,0.0,-999.0,94,-99.99,,,0.00,weatherlink.com 1.10,2013-01-08 07:20:00,
2013-01-08 01:35:00,32.9,31.0,30.26,ENE,65,0.0,-999.0,94,-99.99,,,0.00,weatherlink.com 1.10,2013-01-08 07:35:00,
2013-01-08 01:50:00,32.9,31.0,30.26,ENE,65,0.0,-999.0,94,-99.99,,,0.00,weatherlink.com 1.10,2013-01-08 07:50:00,
2013-01-08 02:05:00,33.4,32.0,30.26,ENE,65,0.0,-999.0,93,-99.99,,,0.00,weatherlink.com 1.10,2013-01-08 08:05:00,
2013-01-08 02:20:00,34.0,32.0,30.25,ENE,65,0.0,-999.0,92,-99.99,,,0.00,weatherlink.com 1.10,2013-01-08 08:20:00,
2013-01-08 02:35:00,34.2,32.0,30.25,ENE,65,0.0,-999.0,91,-99.99,,,0.00,weatherlink.com 1.10,2013-01-08 08:35:00,
2013-01-08 02:50:00,34.1,32.0,30.26,ENE,65,0.0,-999.0,92,-99.99,,,0.00,weatherlink.com 1.10,2013-01-08 08:50:00,
2013-01-08 03:05:00,34.1,32.0,30.26,ENE,65,0.0,-999.0,91,-99.99,,,0.00,weatherlink.com 1.10,2013-01-08 09:05:00,
2013-01-08 03:20:00,34.3,32.0,30.25,ENE,65,0.0,-999.0,90,-99.99,,,0.00,weatherlink.com 1.10,2013-01-08 09:20:00,
2013-01-08 03:35:00,34.3,31.0,30.26,ENE,65,0.0,-999.0,89,-99.99,,,0.00,weatherlink.com 1.10,2013-01-08 09:35:00,
2013-01-08 03:50:00,33.9,32.0,30.26,ENE,65,0.0,-999.0,91,-99.99,,,0.00,weatherlink.com 1.10,2013-01-08 09:50:00,
2013-01-08 04:05:00,34.2,32.0,30.25,ENE,65,0.0,-999.0,90,-99.99,,,0.00,weatherlink.com 1.10,2013-01-08 10:05:00,
2013-01-08 04:20:00,33.8,31.0,30.27,ENE,65,0.0,-999.0,90,-99.99,,,0.00,weatherlink.com 1.10,2013-01-08 10:20:00,
2013-01-08 04:35:00,34.0,31.0,30.26,ENE,65,0.0,-999.0,90,-99.99,,,0.00,weatherlink.com 1.10,2013-01-08 10:35:00,
2013-01-08 04:50:00,34.4,32.0,30.27,ENE,65,0.0,-999.0,90,-99.99,,,0.00,weatherlink.com 1.10,2013-01-08 10:50:00,
2013-01-08 05:05:00,34.8,32.0,30.26,ENE,65,0.0,-999.0,89,-99.99,,,0.00,weatherlink.com 1.10,2013-01-08 11:05:00,
2013-01-08 05:20:00,34.7,32.0,30.27,ENE,65,0.0,-999.0,89,-99.99,,,0.00,weatherlink.com 1.10,2013-01-08 11:20:00,
2013-01-08 05:35:00,34.8,32.0,30.27,ENE,65,0.0,-999.0,88,-99.99,,,0.00,weatherlink.com 1.10,2013-01-08 11:35:00,
2013-01-08 05:50:00,34.8,32.0,30.28,ENE,65,0.0,-999.0,88,-99.99,,,0.00,weatherlink.com 1.10,2013-01-08 11:50:00,
2013-01-08 06:05:00,34.7,32.0,30.29,ENE,65,0.0,-999.0,88,-99.99,,,0.00,weatherlink.com 1.10,2013-01-08 12:05:00,
2013-01-08 06:20:00,34.8,32.0,30.29,ENE,65,0.0,-999.0,88,-99.99,,,0.00,weatherlink.com 1.10,2013-01-08 12:20:00,
2013-01-08 06:35:00,34.8,32.0,30.30,ENE,65,0.0,-999.0,88,-99.99,,,0.00,weatherlink.com 1.10,2013-01-08 12:35:00,
2013-01-08 06:50:00,34.7,32.0,30.30,ENE,65,0.0,-999.0,89,-99.99,,,0.00,weatherlink.com 1.10,2013-01-08 12:50:00,
2013-01-08 07:05:00,34.9,32.0,30.31,ENE,65,0.0,-999.0,88,-99.99,,,0.00,weatherlink.com 1.10,2013-01-08 13:05:00,
2013-01-08 07:20:00,35.2,32.0,30.31,ENE,65,0.0,-999.0,89,-99.99,,,0.00,weatherlink.com 1.10,2013-01-08 13:20:00,
2013-01-08 07:35:00,37.4,33.0,30.32,NE,53,1.0,-999.0,85,-99.99,,,0.00,weatherlink.com 1.10,2013-01-08 13:35:00,
2013-01-08 07:50:00,38.3,34.0,30.32,NNW,347,0.0,-999.0,84,-99.99,,,0.00,weatherlink.com 1.10,2013-01-08 13:50:00,
2013-01-08 08:05:00,40.0,34.0,30.32,NNW,347,0.0,-999.0,80,-99.99,,,0.00,weatherlink.com 1.10,2013-01-08 14:05:00,
2013-01-08 08:20:00,41.4,35.0,30.32,North,5,0.0,-999.0,78,-99.99,,,0.00,weatherlink.com 1.10,2013-01-08 14:20:00,
2013-01-08 08:35:00,42.2,35.0,30.33,North,355,0.0,-999.0,76,-99.99,,,0.00,weatherlink.com 1.10,2013-01-08 14:35:00,
2013-01-08 08:50:00,42.7,36.0,30.33,North,355,0.0,-999.0,77,-99.99,,,0.00,weatherlink.com 1.10,2013-01-08 14:50:00,
2013-01-08 09:05:00,43.5,36.0,30.34,NNE,20,3.0,-999.0,76,-99.99,,,0.00,weatherlink.com 1.10,2013-01-08 15:05:00,
2013-01-08 09:35:00,46.1,38.0,30.34,North,5,4.0,-999.0,72,-99.99,,,0.00,weatherlink.com 1.10,2013-01-08 15:35:00,
2013-01-08 09:50:00,47.5,37.0,30.34,NE,55,0.0,-999.0,68,-99.99,,,0.00,weatherlink.com 1.10,2013-01-08 15:50:00,
2013-01-08 10:05:00,49.0,38.0,30.34,East,91,0.0,-999.0,65,-99.99,,,0.00,weatherlink.com 1.10,2013-01-08 16:05:00,
2013-01-08 10:20:00,49.2,38.0,30.32,East,98,6.0,-999.0,65,-99.99,,,0.00,weatherlink.com 1.10,2013-01-08 16:20:00,
2013-01-08 10:35:00,50.2,38.0,30.32,East,100,5.0,-999.0,63,-99.99,,,0.00,weatherlink.com 1.10,2013-01-08 16:35:00,
2013-01-08 10:50:00,50.3,38.0,30.31,ESE,102,4.0,-999.0,64,-99.99,,,0.00,weatherlink.com 1.10,2013-01-08 16:50:00,
2013-01-08 11:05:00,51.3,39.0,30.30,SE,140,0.0,-999.0,64,-99.99,,,0.00,weatherlink.com 1.10,2013-01-08 17:05:00,
2013-01-08 11:20:00,52.9,40.0,30.29,East,88,0.0,-999.0,62,-99.99,,,0.00,weatherlink.com 1.10,2013-01-08 17:20:00,
2013-01-08 11:35:00,53.6,41.0,30.29,SSE,153,0.0,-999.0,62,-99.99,,,0.00,weatherlink.com 1.10,2013-01-08 17:35:00,
2013-01-08 11:50:00,54.7,41.0,30.28,North,10,0.0,-999.0,61,-99.99,,,0.00,weatherlink.com 1.10,2013-01-08 17:50:00,
2013-01-08 12:05:00,54.9,41.0,30.28,ENE,78,5.0,-999.0,61,-99.99,,,0.00,weatherlink.com 1.10,2013-01-08 18:05:00,
2013-01-08 12:20:00,55.0,42.0,30.27,NE,44,4.0,-999.0,61,-99.99,,,0.00,weatherlink.com 1.10,2013-01-08 18:20:00,
2013-01-08 12:35:00,56.2,43.0,30.26,East,88,0.0,-999.0,61,-99.99,,,0.00,weatherlink.com 1.10,2013-01-08 18:35:00,
2013-01-08 12:50:00,56.0,43.0,30.26,SE,130,5.0,-999.0,61,-99.99,,,0.00,weatherlink.com 1.10,2013-01-08 18:50:00,
2013-01-08 13:05:00,55.6,42.0,30.24,ESE,121,0.0,-999.0,61,-99.99,,,0.00,weatherlink.com 1.10,2013-01-08 19:05:00,
2013-01-08 13:20:00,56.2,44.0,30.24,ESE,118,6.0,-999.0,63,-99.99,,,0.00,weatherlink.com 1.10,2013-01-08 19:20:00,
2013-01-08 13:35:00,56.8,43.0,30.24,East,98,2.0,-999.0,61,-99.99,,,0.00,weatherlink.com 1.10,2013-01-08 19:35:00,
2013-01-08 13:50:00,57.1,44.0,30.24,SE,125,4.0,-999.0,61,-99.99,,,0.00,weatherlink.com 1.10,2013-01-08 19:50:00,
2013-01-08 14:05:00,57.6,44.0,30.24,SE,133,0.0,-999.0,61,-99.99,,,0.00,weatherlink.com 1.10,2013-01-08 20:05:00,
2013-01-08 14:20:00,57.4,44.0,30.23,ESE,114,0.0,-999.0,61,-99.99,,,0.00,weatherlink.com 1.10,2013-01-08 20:20:00,
2013-01-08 14:35:00,57.8,44.0,30.23,ENE,64,0.0,-999.0,60,-99.99,,,0.00,weatherlink.com 1.10,2013-01-08 20:35:00,
2013-01-08 14:50:00,58.5,45.0,30.24,ENE,78,0.0,-999.0,61,-99.99,,,0.00,weatherlink.com 1.10,2013-01-08 20:50:00,
2013-01-08 15:05:00,58.3,45.0,30.24,East,90,0.0,-999.0,62,-99.99,,,0.00,weatherlink.com 1.10,2013-01-08 21:05:00,
2013-01-08 15:20:00,58.0,46.0,30.24,ESE,119,1.0,-999.0,64,-99.99,,,0.00,weatherlink.com 1.10,2013-01-08 21:20:00,
2013-01-08 15:35:00,57.7,45.0,30.23,East,82,5.0,-999.0,62,-99.99,,,0.00,weatherlink.com 1.10,2013-01-08 21:35:00,
2013-01-08 15:50:00,57.4,44.0,30.22,East,88,5.0,-999.0,62,-99.99,,,0.00,weatherlink.com 1.10,2013-01-08 21:50:00,
2013-01-08 16:05:00,57.1,44.0,30.23,ENE,75,0.0,-999.0,63,-99.99,,,0.00,weatherlink.com 1.10,2013-01-08 22:05:00,
2013-01-08 16:20:00,56.6,44.0,30.23,ENE,65,2.0,-999.0,63,-99.99,,,0.00,weatherlink.com 1.10,2013-01-08 22:20:00,
2013-01-08 16:35:00,55.8,44.0,30.23,ENE,69,0.0,-999.0,66,-99.99,,,0.00,weatherlink.com 1.10,2013-01-08 22:35:00,
2013-01-08 16:50:00,53.7,44.0,30.24,ENE,69,0.0,-999.0,70,-99.99,,,0.00,weatherlink.com 1.10,2013-01-08 22:50:00,
2013-01-08 17:05:00,52.3,44.0,30.25,ENE,69,0.0,-999.0,73,-99.99,,,0.00,weatherlink.com 1.10,2013-01-08 23:05:00,
2013-01-08 17:20:00,51.6,44.0,30.25,NE,54,0.0,-999.0,74,-99.99,,,0.00,weatherlink.com 1.10,2013-01-08 23:20:00,
2013-01-08 17:35:00,51.1,43.0,30.25,NE,54,0.0,-999.0,75,-99.99,,,0.00,weatherlink.com 1.10,2013-01-08 23:35:00,
2013-01-08 17:50:00,50.7,43.0,30.24,NE,48,0.0,-999.0,76,-99.99,,,0.00,weatherlink.com 1.10,2013-01-08 23:50:00,
2013-01-08 18:05:00,50.9,43.0,30.25,NNE,19,0.0,-999.0,74,-99.99,,,0.00,weatherlink.com 1.10,2013-01-09 00:05:00,
2013-01-08 18:20:00,51.0,43.0,30.25,NNE,19,0.0,-999.0,74,-99.99,,,0.00,weatherlink.com 1.10,2013-01-09 00:20:00,
2013-01-08 18:35:00,50.4,43.0,30.24,NNE,23,0.0,-999.0,75,-99.99,,,0.00,weatherlink.com 1.10,2013-01-09 00:35:00,
2013-01-08 18:50:00,50.3,43.0,30.25,NNE,23,0.0,-999.0,76,-99.99,,,0.00,weatherlink.com 1.10,2013-01-09 00:50:00,
2013-01-08 19:05:00,50.1,43.0,30.25,NNE,23,0.0,-999.0,76,-99.99,,,0.00,weatherlink.com 1.10,2013-01-09 01:05:00,
2013-01-08 19:20:00,50.3,43.0,30.26,NNE,15,0.0,-999.0,76,-99.99,,,0.00,weatherlink.com 1.10,2013-01-09 01:20:00,
2013-01-08 19:35:00,50.8,43.0,30.25,North,11,0.0,-999.0,75,-99.99,,,0.00,weatherlink.com 1.10,2013-01-09 01:35:00,
2013-01-08 19:50:00,50.9,43.0,30.25,North,5,5.0,-999.0,75,-99.99,,,0.00,weatherlink.com 1.10,2013-01-09 01:50:00,
2013-01-08 20:05:00,50.8,43.0,30.25,North,5,2.0,-999.0,75,-99.99,,,0.00,weatherlink.com 1.10,2013-01-09 02:05:00,
2013-01-08 20:20:00,50.5,43.0,30.25,North,360,5.0,-999.0,75,-99.99,,,0.00,weatherlink.com 1.10,2013-01-09 02:20:00,
2013-01-08 20:35:00,50.5,43.0,30.25,ENE,76,0.0,-999.0,75,-99.99,,,0.00,weatherlink.com 1.10,2013-01-09 02:35:00,
2013-01-08 20:50:00,50.3,43.0,30.24,North,355,0.0,-999.0,76,-99.99,,,0.00,weatherlink.com 1.10,2013-01-09 02:50:00,
2013-01-08 21:05:00,50.4,43.0,30.25,North,355,5.0,-999.0,76,-99.99,,,0.00,weatherlink.com 1.10,2013-01-09 03:05:00,
2013-01-08 21:20:00,50.4,43.0,30.25,North,5,0.0,-999.0,77,-99.99,,,0.00,weatherlink.com 1.10,2013-01-09 03:20:00,
2013-01-08 21:35:00,49.6,43.0,30.24,NNE,17,7.0,-999.0,79,-99.99,,,0.00,weatherlink.com 1.10,2013-01-09 03:35:00,
2013-01-08 21:50:00,49.8,44.0,30.25,NE,35,0.0,-999.0,79,-99.99,,,0.00,weatherlink.com 1.10,2013-01-09 03:50:00,
2013-01-08 22:05:00,49.4,43.0,30.25,NE,36,0.0,-999.0,79,-99.99,,,0.00,weatherlink.com 1.10,2013-01-09 04:05:00,
2013-01-08 22:20:00,47.6,43.0,30.25,NE,36,0.0,-999.0,83,-99.99,,,0.00,weatherlink.com 1.10,2013-01-09 04:20:00,
2013-01-08 22:35:00,46.9,42.0,30.25,NE,36,0.0,-999.0,84,-99.99,,,0.00,weatherlink.com 1.10,2013-01-09 04:35:00,
2013-01-08 22:50:00,46.1,43.0,30.26,NE,36,0.0,-999.0,87,-99.99,,,0.00,weatherlink.com 1.10,2013-01-09 04:50:00,
2013-01-08 23:05:00,46.4,43.0,30.26,NE,36,0.0,-999.0,88,-99.99,,,0.00,weatherlink.com 1.10,2013-01-09 05:05:00,
2013-01-08 23:20:00,47.0,43.0,30.27,NE,36,0.0,-999.0,86,-99.99,,,0.00,weatherlink.com 1.10,2013-01-09 05:20:00,
2013-01-08 23:35:00,46.8,43.0,30.27,NE,36,0.0,-999.0,87,-99.99,,,0.00,weatherlink.com 1.10,2013-01-09 05:35:00,
2013-01-08 23:50:00,47.0,44.0,30.27,NE,36,0.0,-999.0,88,-99.99,,,0.00,weatherlink.com 1.10,2013-01-09 05:50:00,